createdAt,value
2023-01-26T00:09:16.931Z,25.42
2023-01-26T00:14:11.053Z,24.00
2023-01-26T00:19:04.983Z,21.63
2023-01-26T00:23:58.589Z,19.05
2023-01-26T00:28:53.068Z,18.67
2023-01-26T00:33:47.856Z,18.73
2023-01-26T00:38:45.508Z,17.73
2023-01-26T00:43:39.465Z,16.77
2023-01-26T00:48:32.712Z,17.38
2023-01-26T00:53:27.527Z,17.27
2023-01-26T00:58:21.235Z,16.88
2023-01-26T01:03:15.381Z,16.50
2023-01-26T01:08:09.390Z,17.75
2023-01-26T01:13:03.345Z,18.00
2023-01-26T01:17:57.807Z,18.00
2023-01-26T01:22:52.300Z,20.25
2023-01-26T01:27:46.345Z,19.90
2023-01-26T01:32:40.169Z,19.15
2023-01-26T01:37:34.247Z,19.80
2023-01-26T01:42:28.063Z,18.23
2023-01-26T01:47:23.728Z,17.88
2023-01-26T01:52:30.568Z,17.15
2023-01-26T01:57:29.899Z,16.55
2023-01-26T02:02:23.919Z,17.67
2023-01-26T02:07:17.802Z,16.98
2023-01-26T02:17:03.960Z,16.98
2023-01-26T02:22:00.533Z,16.67
2023-01-26T02:26:55.138Z,16.92
2023-01-26T02:31:49.491Z,17.75
2023-01-26T02:36:42.498Z,15.57
2023-01-26T02:41:54.293Z,18.55
2023-01-26T02:46:49.261Z,17.98
2023-01-26T02:51:44.307Z,15.20
2023-01-26T02:56:40.446Z,16.05
2023-01-26T03:01:33.527Z,16.48
2023-01-26T03:06:26.505Z,16.13
2023-01-26T03:11:20.334Z,16.00
2023-01-26T03:16:16.689Z,16.67
2023-01-26T03:21:33.405Z,16.63
2023-01-26T03:26:45.217Z,16.35
2023-01-26T03:31:39.090Z,15.13
2023-01-26T03:36:32.430Z,16.80
2023-01-26T03:41:46.931Z,18.15
2023-01-26T03:46:58.306Z,16.75
2023-01-26T03:52:09.364Z,15.75
2023-01-26T03:57:03.177Z,15.82
2023-01-26T04:02:13.793Z,17.88
2023-01-26T04:07:25.118Z,17.88
2023-01-26T04:12:18.621Z,19.25
2023-01-26T04:17:42.764Z,17.98
2023-01-26T04:22:41.106Z,18.50
2023-01-26T04:27:38.945Z,17.27
2023-01-26T04:32:32.815Z,17.15
2023-01-26T04:37:26.251Z,16.75
2023-01-26T04:42:19.323Z,17.13
2023-01-26T04:47:13.039Z,17.42
2023-01-26T04:52:05.993Z,18.08
2023-01-26T04:57:00.181Z,19.10
2023-01-26T05:01:53.464Z,16.48
2023-01-26T05:06:46.586Z,16.80
2023-01-26T05:11:40.455Z,15.73
2023-01-26T05:16:51.799Z,16.38
2023-01-26T05:21:52.782Z,17.83
2023-01-26T05:31:43.375Z,16.95
2023-01-26T05:36:36.652Z,16.85
2023-01-26T05:46:42.709Z,16.70
2023-01-26T05:51:36.616Z,15.07
2023-01-26T05:56:30.982Z,14.80
2023-01-26T06:01:27.273Z,14.35
2023-01-26T06:06:25.362Z,15.02
2023-01-26T06:11:28.524Z,13.38
2023-01-26T06:16:39.622Z,13.30
2023-01-26T06:21:34.574Z,14.00
2023-01-26T06:26:27.588Z,13.98
2023-01-26T06:31:25.079Z,13.07
2023-01-26T06:36:21.709Z,15.70
2023-01-26T06:41:15.700Z,16.52
2023-01-26T06:46:09.477Z,14.57
2023-01-26T06:51:21.394Z,18.13
2023-01-26T06:56:15.347Z,20.25
2023-01-26T07:01:36.278Z,14.80
2023-01-26T07:06:29.426Z,14.48
2023-01-26T07:11:26.863Z,15.88
2023-01-26T07:16:19.739Z,16.23
2023-01-26T07:21:16.620Z,14.45
2023-01-26T07:26:14.421Z,15.27
2023-01-26T07:31:08.719Z,15.25
2023-01-26T07:36:02.436Z,16.40
2023-01-26T07:40:56.493Z,16.38
2023-01-26T07:46:10.755Z,14.98
2023-01-26T07:51:06.044Z,17.17
2023-01-26T07:56:12.004Z,18.85
2023-01-26T08:01:15.845Z,24.80
2023-01-26T08:06:12.405Z,25.17
2023-01-26T08:11:10.866Z,24.23
2023-01-26T08:16:12.803Z,24.10
2023-01-26T08:21:07.043Z,25.02
2023-01-26T08:26:12.480Z,21.58
2023-01-26T08:31:19.196Z,19.33
2023-01-26T08:36:13.330Z,23.65
2023-01-26T08:45:59.672Z,20.38
2023-01-26T08:50:59.220Z,35.08
2023-01-26T08:55:52.121Z,34.97
2023-01-26T09:00:49.194Z,45.70
2023-01-26T09:05:42.737Z,43.35
2023-01-26T09:10:39.630Z,30.63
2023-01-26T09:15:32.624Z,19.45
2023-01-26T09:20:25.987Z,12.35
2023-01-26T09:25:19.368Z,10.45
2023-01-26T09:30:12.884Z,10.73
2023-01-26T09:35:14.163Z,16.35
2023-01-26T09:40:18.190Z,16.08
2023-01-26T09:45:13.983Z,16.55
2023-01-26T09:50:20.838Z,18.08
2023-01-26T09:55:26.365Z,16.75
2023-01-26T10:00:36.616Z,18.38
2023-01-26T10:05:35.863Z,14.45
2023-01-26T10:10:35.070Z,15.73
2023-01-26T10:15:40.462Z,15.90
2023-01-26T10:20:43.295Z,16.90
2023-01-26T10:25:39.491Z,18.13
2023-01-26T10:30:33.785Z,16.70
2023-01-26T10:35:28.206Z,11.63
2023-01-26T10:40:21.123Z,11.55
2023-01-26T10:45:32.002Z,13.80
2023-01-26T10:50:26.369Z,12.40
2023-01-26T10:55:22.934Z,12.32
2023-01-26T11:00:30.052Z,12.18
2023-01-26T11:05:24.154Z,11.02
2023-01-26T11:10:21.824Z,10.82
2023-01-26T11:15:24.427Z,11.20
2023-01-26T11:21:05.064Z,11.17
2023-01-26T11:26:34.965Z,10.07
2023-01-26T11:31:40.901Z,11.57
2023-01-26T11:37:23.295Z,9.60
2023-01-26T11:42:27.871Z,10.52
2023-01-26T11:47:43.583Z,9.98
2023-01-26T11:52:59.050Z,10.27
2023-01-26T11:58:00.274Z,11.70
2023-01-26T12:03:02.365Z,11.20
2023-01-26T12:08:13.798Z,10.32
2023-01-26T12:13:39.949Z,11.63
2023-01-26T12:18:53.197Z,9.90
2023-01-26T12:24:04.644Z,10.70
2023-01-26T12:29:10.162Z,10.10
2023-01-26T12:34:04.292Z,9.98
2023-01-26T12:44:08.591Z,11.15
2023-01-26T12:49:21.055Z,11.35
2023-01-26T12:54:27.176Z,10.65
2023-01-26T12:59:46.444Z,10.82
2023-01-26T13:04:42.263Z,10.95
2023-01-26T13:09:35.421Z,11.27
2023-01-26T13:19:53.142Z,11.03
2023-01-26T13:24:49.005Z,9.77
2023-01-26T13:29:57.108Z,10.20
2023-01-26T13:35:00.360Z,9.18
2023-01-26T13:40:01.501Z,8.27
2023-01-26T13:45:07.062Z,18.98
2023-01-26T13:50:01.020Z,9.55
2023-01-26T13:54:58.085Z,10.05
2023-01-26T14:00:01.075Z,9.73
2023-01-26T14:04:58.029Z,8.55
2023-01-26T14:09:53.488Z,9.20
2023-01-26T14:14:48.844Z,9.32
2023-01-26T14:19:42.351Z,10.68
2023-01-26T14:24:41.542Z,11.07
2023-01-26T14:29:39.408Z,10.82
2023-01-26T14:34:32.809Z,11.68
2023-01-26T14:39:26.243Z,10.13
2023-01-26T14:49:19.595Z,10.05
2023-01-26T14:54:32.370Z,11.25
2023-01-26T14:59:33.899Z,10.60
2023-01-26T15:04:36.096Z,11.23
2023-01-26T15:09:29.420Z,10.98
2023-01-26T15:19:39.025Z,10.77
2023-01-26T15:24:32.587Z,11.23
2023-01-26T15:29:31.670Z,14.65
2023-01-26T15:34:48.016Z,13.35
2023-01-26T15:39:41.620Z,12.73
2023-01-26T15:44:35.462Z,13.52
2023-01-26T15:49:28.713Z,12.52
2023-01-26T15:54:21.956Z,13.85
2023-01-26T15:59:14.488Z,10.13
2023-01-26T16:04:09.263Z,12.67
2023-01-26T16:09:02.421Z,13.60
2023-01-26T16:18:57.722Z,16.80
2023-01-26T16:23:51.068Z,17.67
2023-01-26T16:28:44.816Z,17.48
2023-01-26T16:33:38.263Z,17.52
2023-01-26T16:38:30.499Z,16.30
2023-01-26T16:43:25.070Z,17.30
2023-01-26T16:48:18.919Z,17.33
2023-01-26T16:53:31.544Z,17.60
2023-01-26T16:58:26.666Z,20.70
2023-01-26T17:03:20.582Z,20.20
2023-01-26T17:08:13.929Z,18.00
2023-01-26T17:13:07.375Z,18.05
2023-01-26T17:18:02.264Z,19.20
2023-01-26T17:22:55.339Z,22.20
2023-01-26T17:27:50.199Z,28.15
2023-01-26T17:32:44.787Z,33.58
2023-01-26T17:37:39.157Z,37.13
2023-01-26T17:42:35.646Z,32.70
2023-01-26T17:47:29.297Z,34.20
2023-01-26T17:52:22.891Z,37.72
2023-01-26T17:57:16.691Z,39.75
2023-01-26T18:02:13.042Z,40.83
2023-01-26T18:07:06.729Z,30.10
2023-01-26T18:11:59.700Z,31.20
2023-01-26T18:16:52.730Z,31.17
2023-01-26T18:26:39.415Z,32.85
2023-01-26T18:31:37.622Z,28.80
2023-01-26T18:36:31.604Z,29.17
2023-01-26T18:41:25.406Z,27.83
2023-01-26T18:46:19.436Z,28.55
2023-01-26T18:56:10.379Z,31.77
2023-01-26T19:01:06.119Z,33.08
2023-01-26T19:06:03.627Z,30.27
2023-01-26T19:10:56.715Z,31.33
2023-01-26T19:15:50.443Z,31.33
2023-01-26T19:20:43.543Z,33.20
2023-01-26T19:25:38.347Z,37.63
2023-01-26T19:30:31.019Z,33.38
2023-01-26T19:40:18.227Z,30.07
2023-01-26T19:45:12.233Z,33.75
2023-01-26T19:50:07.724Z,30.90
2023-01-26T19:55:00.754Z,28.73
2023-01-26T20:04:48.827Z,24.15
2023-01-26T20:09:42.086Z,23.13
2023-01-26T20:14:36.202Z,22.95
2023-01-26T20:19:29.863Z,22.08
2023-01-26T20:29:19.186Z,23.38
2023-01-26T20:34:14.572Z,24.88
2023-01-26T20:39:09.624Z,32.88
2023-01-26T20:44:04.998Z,23.25
2023-01-26T20:48:58.356Z,21.17
2023-01-26T20:58:44.491Z,23.20
2023-01-26T21:03:38.967Z,25.55
2023-01-26T21:08:32.601Z,25.88
2023-01-26T21:18:18.924Z,24.17
2023-01-26T21:23:14.075Z,24.10
2023-01-26T21:28:07.419Z,25.23
2023-01-26T21:33:00.647Z,24.02
2023-01-26T21:37:54.481Z,19.40
2023-01-26T21:42:48.808Z,19.63
2023-01-26T21:47:42.709Z,17.85
2023-01-26T21:52:54.898Z,17.30
2023-01-26T21:58:06.828Z,17.33
2023-01-26T22:03:01.167Z,16.05
2023-01-26T22:07:55.582Z,19.75
2023-01-26T22:12:49.577Z,21.33
2023-01-26T22:17:42.143Z,20.73
2023-01-26T22:22:35.623Z,21.10
2023-01-26T22:32:21.551Z,16.98
2023-01-26T22:42:08.103Z,17.10
2023-01-26T22:47:01.934Z,18.00
2023-01-26T22:51:55.122Z,19.75
2023-01-26T22:56:49.264Z,18.70
2023-01-26T23:01:43.574Z,19.75
2023-01-26T23:06:37.227Z,21.15
2023-01-26T23:11:31.157Z,21.88
2023-01-26T23:16:25.074Z,17.65
2023-01-26T23:26:11.637Z,16.20
2023-01-26T23:35:59.061Z,15.07
2023-01-26T23:40:53.900Z,16.80
2023-01-26T23:45:47.960Z,15.20
2023-01-26T23:50:40.525Z,15.50
2023-01-26T23:55:33.381Z,15.15
